createdAt,value
2017-08-08T00:00:12.850Z,11.33
2017-08-08T00:01:12.878Z,11.32
2017-08-08T00:02:12.845Z,11.29
2017-08-08T00:03:12.823Z,11.29
2017-08-08T00:04:12.846Z,11.29
2017-08-08T00:05:12.854Z,11.28
2017-08-08T00:06:12.882Z,11.27
2017-08-08T00:07:12.847Z,11.27
2017-08-08T00:08:12.882Z,11.24
2017-08-08T00:09:12.927Z,11.24
2017-08-08T00:10:12.865Z,11.22
2017-08-08T00:11:12.886Z,11.21
2017-08-08T00:12:12.863Z,11.17
2017-08-08T00:13:12.834Z,11.16
2017-08-08T00:14:12.871Z,11.13
2017-08-08T00:15:12.890Z,11.11
2017-08-08T00:16:12.903Z,11.13
2017-08-08T00:17:12.860Z,11.11
2017-08-08T00:18:12.858Z,11.09
2017-08-08T00:19:12.888Z,11.07
2017-08-08T00:20:12.831Z,11.07
2017-08-08T00:21:12.890Z,11.06
2017-08-08T00:22:12.828Z,11.05
2017-08-08T00:23:12.893Z,11.05
2017-08-08T00:24:12.898Z,11.05
2017-08-08T00:25:12.832Z,11.02
2017-08-08T00:26:12.863Z,11.02
2017-08-08T00:27:12.834Z,10.98
2017-08-08T00:28:12.931Z,10.95
2017-08-08T00:29:12.937Z,10.95
2017-08-08T00:30:12.941Z,10.97
2017-08-08T00:31:12.907Z,10.98
2017-08-08T00:32:12.902Z,10.98
2017-08-08T00:33:12.903Z,10.97
2017-08-08T00:34:12.917Z,10.94
2017-08-08T00:35:12.867Z,10.94
2017-08-08T00:36:12.908Z,10.91
2017-08-08T00:37:12.905Z,10.91
2017-08-08T00:38:12.940Z,10.93
2017-08-08T00:39:12.946Z,10.93
2017-08-08T00:40:12.913Z,10.91
2017-08-08T00:41:12.888Z,10.88
2017-08-08T00:42:12.946Z,10.84
2017-08-08T00:43:12.887Z,10.84
2017-08-08T00:44:12.964Z,10.83
2017-08-08T00:45:12.917Z,10.79
2017-08-08T00:46:12.913Z,10.77
2017-08-08T00:47:12.853Z,10.81
2017-08-08T00:48:12.948Z,10.81
2017-08-08T00:49:12.946Z,10.81
2017-08-08T00:50:12.923Z,10.84
2017-08-08T00:51:12.882Z,10.83
2017-08-08T00:52:12.892Z,10.83
2017-08-08T00:53:12.883Z,10.77
2017-08-08T00:54:12.856Z,10.71
2017-08-08T00:55:12.909Z,10.71
2017-08-08T00:56:12.881Z,10.68
2017-08-08T00:57:12.910Z,10.68
2017-08-08T00:58:12.862Z,10.65
2017-08-08T00:59:12.916Z,10.63
2017-08-08T01:00:12.856Z,10.60
2017-08-08T01:01:12.852Z,10.58
2017-08-08T01:02:12.916Z,10.57
2017-08-08T01:03:12.856Z,10.58
2017-08-08T01:04:12.857Z,10.57
2017-08-08T01:05:12.857Z,10.61
2017-08-08T01:06:12.916Z,10.60
2017-08-08T01:07:12.923Z,10.60
2017-08-08T01:08:12.818Z,10.57
2017-08-08T01:09:12.888Z,10.60
2017-08-08T01:10:12.834Z,10.61
2017-08-08T01:11:12.847Z,10.61
2017-08-08T01:12:12.891Z,10.60
2017-08-08T01:13:12.936Z,10.60
2017-08-08T01:14:12.934Z,10.61
2017-08-08T01:15:12.887Z,10.61
2017-08-08T01:16:12.878Z,10.60
2017-08-08T01:17:12.864Z,10.64
2017-08-08T01:18:12.887Z,10.65
2017-08-08T01:19:12.868Z,10.72
2017-08-08T01:20:12.924Z,10.71
2017-08-08T01:21:12.862Z,10.68
2017-08-08T01:22:12.927Z,10.64
2017-08-08T01:23:12.892Z,10.60
2017-08-08T01:24:12.933Z,10.63
2017-08-08T01:25:12.925Z,10.63
2017-08-08T01:26:12.927Z,10.58
2017-08-08T01:27:12.898Z,10.56
2017-08-08T01:28:12.898Z,10.54
2017-08-08T01:29:12.929Z,10.50
2017-08-08T01:30:12.871Z,10.49
2017-08-08T01:31:12.937Z,10.47
2017-08-08T01:32:12.898Z,10.47
2017-08-08T01:33:12.899Z,10.52
2017-08-08T01:34:12.934Z,10.58
2017-08-08T01:35:12.875Z,10.60
2017-08-08T01:36:12.939Z,10.63
2017-08-08T01:37:12.898Z,10.67
2017-08-08T01:38:12.885Z,10.72
2017-08-08T01:39:12.922Z,10.75
2017-08-08T01:40:12.894Z,10.72
2017-08-08T01:41:12.935Z,10.74
2017-08-08T01:42:12.954Z,10.75
2017-08-08T01:43:12.946Z,10.77
2017-08-08T01:44:12.885Z,10.79
2017-08-08T01:45:12.983Z,10.81
2017-08-08T01:46:12.890Z,10.80
2017-08-08T01:47:12.970Z,10.79
2017-08-08T01:48:12.907Z,10.77
2017-08-08T01:49:12.944Z,10.79
2017-08-08T01:50:12.951Z,10.75
2017-08-08T01:51:12.911Z,10.74
2017-08-08T01:52:12.949Z,10.72
2017-08-08T01:53:12.888Z,10.71
2017-08-08T01:54:12.911Z,10.72
2017-08-08T01:55:12.919Z,10.72
2017-08-08T01:56:12.953Z,10.71
2017-08-08T01:57:12.947Z,10.72
2017-08-08T01:58:12.868Z,10.75
2017-08-08T01:59:12.888Z,10.77
2017-08-08T02:00:12.915Z,10.80
2017-08-08T02:01:13.049Z,10.81
2017-08-08T02:02:12.962Z,10.81
2017-08-08T02:03:12.899Z,10.80
2017-08-08T02:04:12.869Z,10.80
2017-08-08T02:05:12.904Z,10.80
2017-08-08T02:06:12.916Z,10.77
2017-08-08T02:07:12.920Z,10.75
2017-08-08T02:08:12.927Z,10.71
2017-08-08T02:09:12.988Z,10.75
2017-08-08T02:10:12.987Z,10.88
2017-08-08T02:11:12.992Z,10.87
2017-08-08T02:12:12.933Z,10.83
2017-08-08T02:13:12.958Z,10.79
2017-08-08T02:14:12.991Z,10.77
2017-08-08T02:15:12.994Z,10.74
2017-08-08T02:16:12.974Z,10.72
2017-08-08T02:17:12.938Z,10.69
2017-08-08T02:18:12.983Z,10.67
2017-08-08T02:19:12.995Z,10.65
2017-08-08T02:20:12.996Z,10.67
2017-08-08T02:21:12.913Z,10.67
2017-08-08T02:22:12.907Z,10.72
2017-08-08T02:23:12.907Z,10.69
2017-08-08T02:24:12.927Z,10.68
2017-08-08T02:25:12.929Z,10.65
2017-08-08T02:26:12.947Z,10.65
2017-08-08T02:27:12.942Z,10.65
2017-08-08T02:28:12.939Z,10.64
2017-08-08T02:29:12.912Z,10.63
2017-08-08T02:30:13.000Z,10.64
2017-08-08T02:31:12.996Z,10.63
2017-08-08T02:32:12.951Z,10.61
2017-08-08T02:33:12.948Z,10.60
2017-08-08T02:34:12.945Z,10.56
2017-08-08T02:35:12.942Z,10.54
2017-08-08T02:36:13.014Z,10.60
2017-08-08T02:37:12.991Z,10.61
2017-08-08T02:38:12.968Z,10.61
2017-08-08T02:39:12.972Z,10.60
2017-08-08T02:40:12.909Z,10.63
2017-08-08T02:41:12.983Z,10.61
2017-08-08T02:42:12.912Z,10.58
2017-08-08T02:43:12.943Z,10.58
2017-08-08T02:44:12.982Z,10.56
2017-08-08T02:45:12.976Z,10.57
2017-08-08T02:46:12.939Z,10.58
2017-08-08T02:47:12.942Z,10.60
2017-08-08T02:48:12.977Z,10.60
2017-08-08T02:49:12.923Z,10.60
2017-08-08T02:50:12.913Z,10.61
2017-08-08T02:51:12.920Z,10.61
2017-08-08T02:52:12.947Z,10.61
2017-08-08T02:53:12.922Z,10.61
2017-08-08T02:54:12.947Z,10.61
2017-08-08T02:55:12.982Z,10.60
2017-08-08T02:56:12.988Z,10.61
2017-08-08T02:57:12.948Z,10.60
2017-08-08T02:58:12.941Z,10.61
2017-08-08T02:59:12.943Z,10.61
2017-08-08T03:00:12.868Z,10.58
2017-08-08T03:01:12.873Z,10.58
2017-08-08T03:02:12.867Z,10.60
2017-08-08T03:03:12.915Z,10.60
2017-08-08T03:04:12.870Z,10.64
2017-08-08T03:05:12.928Z,10.64
2017-08-08T03:06:12.932Z,10.65
2017-08-08T03:07:12.900Z,10.68
2017-08-08T03:08:12.987Z,10.74
2017-08-08T03:09:12.988Z,10.74
2017-08-08T03:10:12.958Z,10.74
2017-08-08T03:11:12.954Z,10.74
2017-08-08T03:12:12.955Z,10.77
2017-08-08T03:13:12.933Z,10.81
2017-08-08T03:14:12.927Z,10.84
2017-08-08T03:15:12.956Z,10.86
2017-08-08T03:16:12.932Z,10.86
2017-08-08T03:17:12.961Z,10.86
2017-08-08T03:18:12.969Z,10.88
2017-08-08T03:19:12.970Z,10.91
2017-08-08T03:20:12.942Z,10.90
2017-08-08T03:21:12.943Z,10.93
2017-08-08T03:22:12.944Z,10.94
2017-08-08T03:23:12.972Z,10.97
2017-08-08T03:24:13.013Z,11.00
2017-08-08T03:25:13.037Z,11.03
2017-08-08T03:26:13.038Z,10.98
2017-08-08T03:27:13.036Z,10.95
2017-08-08T03:28:12.982Z,10.94
2017-08-08T03:29:12.947Z,10.88
2017-08-08T03:30:12.952Z,10.84
2017-08-08T03:31:13.035Z,10.81
2017-08-08T03:32:13.037Z,10.77
2017-08-08T03:33:12.946Z,10.79
2017-08-08T03:34:13.043Z,10.79
2017-08-08T03:35:13.042Z,10.75
2017-08-08T03:36:12.988Z,10.75
2017-08-08T03:37:13.045Z,10.74
2017-08-08T03:38:12.981Z,10.72
2017-08-08T03:39:12.942Z,10.72
2017-08-08T03:40:13.011Z,10.71
2017-08-08T03:41:12.980Z,10.68
2017-08-08T03:42:12.973Z,10.67
2017-08-08T03:43:12.948Z,10.67
2017-08-08T03:44:12.974Z,10.77
2017-08-08T03:45:13.011Z,10.81
2017-08-08T03:46:13.006Z,10.80
2017-08-08T03:47:13.016Z,10.79
2017-08-08T03:48:12.976Z,10.77
2017-08-08T03:49:12.944Z,10.75
2017-08-08T03:50:12.964Z,10.75
2017-08-08T03:51:12.955Z,10.74
2017-08-08T03:52:12.900Z,10.71
2017-08-08T03:53:12.950Z,10.71
2017-08-08T03:54:12.964Z,10.69
2017-08-08T03:55:12.969Z,10.68
2017-08-08T03:56:12.899Z,10.65
2017-08-08T03:57:12.977Z,10.65
2017-08-08T03:58:13.015Z,10.63
2017-08-08T03:59:12.974Z,10.63
2017-08-08T04:00:12.966Z,10.61
2017-08-08T04:01:12.969Z,10.61
2017-08-08T04:02:13.021Z,10.61
2017-08-08T04:03:12.992Z,10.61
2017-08-08T04:04:13.008Z,10.61
2017-08-08T04:05:13.057Z,10.57
2017-08-08T04:06:13.024Z,10.54
2017-08-08T04:07:13.057Z,10.53
2017-08-08T04:08:13.046Z,10.53
2017-08-08T04:09:12.961Z,10.53
2017-08-08T04:10:13.029Z,10.52
2017-08-08T04:11:13.034Z,10.53
2017-08-08T04:12:12.958Z,10.52
2017-08-08T04:13:12.994Z,10.53
2017-08-08T04:14:12.972Z,10.52
2017-08-08T04:15:12.962Z,10.54
2017-08-08T04:16:13.032Z,10.58
2017-08-08T04:17:13.028Z,10.57
2017-08-08T04:18:13.000Z,10.56
2017-08-08T04:19:13.025Z,10.58
2017-08-08T04:20:12.966Z,10.60
2017-08-08T04:21:12.962Z,10.60
2017-08-08T04:22:12.996Z,10.60
2017-08-08T04:23:12.967Z,10.60
2017-08-08T04:24:12.996Z,10.61
2017-08-08T04:25:12.997Z,10.64
2017-08-08T04:26:12.998Z,10.65
2017-08-08T04:27:12.970Z,10.68
2017-08-08T04:28:13.032Z,10.71
2017-08-08T04:29:12.967Z,10.72
2017-08-08T04:30:13.035Z,10.77
2017-08-08T04:31:12.969Z,10.83
2017-08-08T04:32:13.031Z,10.87
2017-08-08T04:33:13.003Z,10.87
2017-08-08T04:34:13.001Z,10.90
2017-08-08T04:35:13.001Z,10.91
2017-08-08T04:36:13.004Z,10.93
2017-08-08T04:37:13.038Z,10.94
2017-08-08T04:38:13.060Z,10.95
2017-08-08T04:39:13.008Z,10.98
2017-08-08T04:40:12.987Z,11.03
2017-08-08T04:41:12.980Z,11.03
2017-08-08T04:42:12.955Z,11.02
2017-08-08T04:43:13.008Z,11.02
2017-08-08T04:44:12.964Z,11.02
2017-08-08T04:45:12.988Z,11.05
2017-08-08T04:46:12.988Z,11.09
2017-08-08T04:47:13.015Z,11.14
2017-08-08T04:48:13.014Z,11.17
2017-08-08T04:49:12.995Z,11.22
2017-08-08T04:50:13.028Z,11.29
2017-08-08T04:51:12.995Z,11.35
2017-08-08T04:52:13.022Z,11.39
2017-08-08T04:53:13.085Z,11.40
2017-08-08T04:54:12.991Z,11.46
2017-08-08T04:55:13.089Z,11.46
2017-08-08T04:56:12.999Z,11.42
2017-08-08T04:57:13.068Z,11.40
2017-08-08T04:58:13.031Z,11.39
2017-08-08T04:59:13.089Z,11.38
2017-08-08T05:00:13.026Z,11.35
2017-08-08T05:01:13.070Z,11.35
2017-08-08T05:02:13.001Z,11.35
2017-08-08T05:03:13.060Z,11.38
2017-08-08T05:04:13.076Z,11.40
2017-08-08T05:05:13.066Z,11.45
2017-08-08T05:06:13.096Z,11.46
2017-08-08T05:07:13.010Z,11.46
2017-08-08T05:08:13.001Z,11.49
2017-08-08T05:09:13.029Z,11.50
2017-08-08T05:10:12.980Z,11.56
2017-08-08T05:11:13.024Z,11.58
2017-08-08T05:12:13.017Z,11.62
2017-08-08T05:13:13.073Z,11.67
2017-08-08T05:14:13.028Z,11.69
2017-08-08T05:15:13.001Z,11.72
2017-08-08T05:16:13.028Z,11.78
2017-08-08T05:17:13.035Z,11.84
2017-08-08T05:18:13.031Z,11.94
2017-08-08T05:19:13.009Z,11.99
2017-08-08T05:20:13.014Z,12.08
2017-08-08T05:21:13.044Z,12.12
2017-08-08T05:22:13.074Z,12.18
2017-08-08T05:23:13.045Z,12.26
2017-08-08T05:24:13.069Z,12.32
2017-08-08T05:25:13.016Z,12.37
2017-08-08T05:26:13.049Z,12.43
2017-08-08T05:27:13.017Z,12.48
2017-08-08T05:28:13.107Z,12.55
2017-08-08T05:29:13.017Z,12.64
2017-08-08T05:30:13.052Z,12.71
2017-08-08T05:31:13.009Z,12.77
2017-08-08T05:32:13.020Z,12.84
2017-08-08T05:33:13.086Z,12.95
2017-08-08T05:34:13.105Z,13.05
2017-08-08T05:35:13.110Z,13.17
2017-08-08T05:36:13.107Z,13.23
2017-08-08T05:37:13.024Z,13.29
2017-08-08T05:38:13.040Z,13.38
2017-08-08T05:39:13.003Z,13.40
2017-08-08T05:40:13.003Z,13.46
2017-08-08T05:41:13.034Z,13.54
2017-08-08T05:42:13.019Z,13.61
2017-08-08T05:43:12.986Z,13.72
2017-08-08T05:44:13.010Z,13.80
2017-08-08T05:45:13.016Z,13.91
2017-08-08T05:46:13.158Z,14.00
2017-08-08T05:47:13.003Z,14.04
2017-08-08T05:48:13.030Z,14.11
2017-08-08T05:49:13.078Z,14.21
2017-08-08T05:50:13.090Z,14.27
2017-08-08T05:51:13.120Z,14.36
2017-08-08T05:52:13.080Z,14.40
2017-08-08T05:53:13.063Z,14.49
2017-08-08T05:54:13.090Z,14.57
2017-08-08T05:55:13.067Z,14.55
2017-08-08T05:56:13.100Z,14.61
2017-08-08T05:57:13.104Z,14.68
2017-08-08T05:58:13.037Z,14.73
2017-08-08T05:59:13.023Z,14.76
2017-08-08T06:00:13.056Z,14.79
2017-08-08T06:01:13.208Z,14.83
2017-08-08T06:02:13.060Z,14.86
2017-08-08T06:03:13.056Z,14.91
2017-08-08T06:04:13.024Z,14.98
2017-08-08T06:05:13.036Z,14.98
2017-08-08T06:06:13.023Z,15.00
2017-08-08T06:07:13.026Z,15.06
2017-08-08T06:08:13.030Z,15.07
2017-08-08T06:09:13.111Z,15.11
2017-08-08T06:10:13.068Z,15.14
2017-08-08T06:11:13.113Z,15.19
2017-08-08T06:12:13.092Z,15.21
2017-08-08T06:13:13.135Z,15.24
2017-08-08T06:14:13.070Z,15.28
2017-08-08T06:15:13.134Z,15.29
2017-08-08T06:16:13.136Z,15.35
2017-08-08T06:17:13.103Z,15.43
2017-08-08T06:18:13.046Z,15.50
2017-08-08T06:19:13.056Z,15.58
2017-08-08T06:20:13.192Z,15.62
2017-08-08T06:21:13.060Z,15.65
2017-08-08T06:22:13.042Z,15.70
2017-08-08T06:23:13.069Z,15.76
2017-08-08T06:24:13.066Z,15.83
2017-08-08T06:25:13.045Z,15.90
2017-08-08T06:26:13.187Z,15.94
2017-08-08T06:27:13.060Z,16.00
2017-08-08T06:28:13.062Z,16.06
2017-08-08T06:29:13.079Z,16.16
2017-08-08T06:30:13.049Z,16.25
2017-08-08T06:31:13.057Z,16.35
2017-08-08T06:33:13.052Z,16.58
2017-08-08T06:34:13.123Z,16.65
2017-08-08T06:35:13.112Z,16.70
2017-08-08T06:36:13.140Z,16.79
2017-08-08T06:37:13.153Z,16.91
2017-08-08T06:38:13.151Z,16.99
2017-08-08T06:39:13.129Z,17.06
2017-08-08T06:40:13.111Z,17.12
2017-08-08T06:41:13.079Z,17.16
2017-08-08T06:42:13.085Z,17.21
2017-08-08T06:43:13.153Z,17.32
2017-08-08T06:44:13.152Z,17.43
2017-08-08T06:45:13.153Z,17.46
2017-08-08T06:46:13.132Z,17.54
2017-08-08T06:47:13.132Z,17.61
2017-08-08T06:48:13.157Z,17.69
2017-08-08T06:49:13.113Z,17.73
2017-08-08T06:50:13.062Z,17.77
2017-08-08T06:51:13.099Z,17.92
2017-08-08T06:52:13.118Z,18.03
2017-08-08T06:53:13.192Z,18.02
2017-08-08T06:54:13.092Z,17.98
2017-08-08T06:55:13.068Z,18.05
2017-08-08T06:56:13.103Z,18.16
2017-08-08T06:57:13.140Z,18.31
2017-08-08T06:58:13.162Z,18.52
2017-08-08T06:59:13.098Z,18.68
2017-08-08T07:00:13.096Z,18.84
2017-08-08T07:01:13.068Z,19.01
2017-08-08T07:02:13.094Z,19.20
2017-08-08T07:03:13.164Z,19.24
2017-08-08T07:04:13.106Z,19.32
2017-08-08T07:05:13.098Z,19.40
2017-08-08T07:06:13.070Z,19.40
2017-08-08T07:07:13.077Z,19.33
2017-08-08T07:08:13.146Z,19.42
2017-08-08T07:09:13.108Z,19.47
2017-08-08T07:10:13.106Z,19.60
2017-08-08T07:11:13.150Z,19.60
2017-08-08T07:12:13.100Z,19.70
2017-08-08T07:13:13.106Z,19.76
2017-08-08T07:14:13.170Z,19.81
2017-08-08T07:15:13.080Z,19.76
2017-08-08T07:16:13.078Z,19.87
2017-08-08T07:17:13.110Z,19.72
2017-08-08T07:18:13.075Z,19.70
2017-08-08T07:19:13.141Z,19.58
2017-08-08T07:20:13.206Z,19.44
2017-08-08T07:21:13.173Z,19.55
2017-08-08T07:22:13.103Z,19.61
2017-08-08T07:23:13.117Z,19.60
2017-08-08T07:24:13.176Z,19.54
2017-08-08T07:25:13.086Z,19.66
2017-08-08T07:26:13.086Z,19.68
2017-08-08T07:27:13.109Z,19.77
2017-08-08T07:28:13.086Z,19.73
2017-08-08T07:29:13.079Z,19.74
2017-08-08T07:30:13.145Z,19.80
2017-08-08T07:31:13.107Z,19.80
2017-08-08T07:32:13.118Z,19.74
2017-08-08T07:33:13.062Z,19.81
2017-08-08T07:34:13.151Z,19.91
2017-08-08T07:35:13.056Z,19.96
2017-08-08T07:36:13.092Z,19.88
2017-08-08T07:37:13.116Z,19.77
2017-08-08T07:38:13.094Z,19.85
2017-08-08T07:39:13.118Z,20.01
2017-08-08T07:40:13.127Z,20.13
2017-08-08T07:41:13.127Z,20.27
2017-08-08T07:42:13.187Z,20.46
2017-08-08T07:43:13.186Z,20.58
2017-08-08T07:44:13.119Z,20.66
2017-08-08T07:45:13.120Z,20.57
2017-08-08T07:46:13.131Z,20.61
2017-08-08T07:47:13.168Z,20.77
2017-08-08T07:48:13.126Z,20.77
2017-08-08T07:49:13.186Z,20.86
2017-08-08T07:50:13.168Z,20.99
2017-08-08T07:51:13.158Z,21.18
2017-08-08T07:52:13.141Z,21.32
2017-08-08T07:53:13.137Z,21.50
2017-08-08T07:54:13.199Z,21.49
2017-08-08T07:55:13.100Z,21.20
2017-08-08T07:56:13.124Z,21.13
2017-08-08T07:57:13.186Z,21.10
2017-08-08T07:58:13.102Z,21.32
2017-08-08T07:59:13.156Z,21.45
2017-08-08T08:00:13.166Z,21.38
2017-08-08T08:01:13.168Z,21.27
2017-08-08T08:02:13.103Z,21.34
2017-08-08T08:03:13.112Z,21.28
2017-08-08T08:04:13.103Z,21.40
2017-08-08T08:05:13.108Z,21.46
2017-08-08T08:06:13.133Z,21.49
2017-08-08T08:07:13.183Z,21.65
2017-08-08T08:08:13.109Z,21.54
2017-08-08T08:09:13.161Z,21.58
2017-08-08T08:10:13.198Z,21.45
2017-08-08T08:11:13.113Z,21.51
2017-08-08T08:12:13.173Z,21.31
2017-08-08T08:13:13.138Z,21.27
2017-08-08T08:14:13.116Z,21.31
2017-08-08T08:15:13.145Z,21.34
2017-08-08T08:16:13.113Z,21.31
2017-08-08T08:17:13.141Z,21.39
2017-08-08T08:18:13.152Z,21.36
2017-08-08T08:19:13.141Z,21.16
2017-08-08T08:20:13.212Z,21.08
2017-08-08T08:21:13.204Z,21.14
2017-08-08T08:22:13.188Z,21.20
2017-08-08T08:23:13.205Z,21.40
2017-08-08T08:24:13.122Z,21.67
2017-08-08T08:25:13.152Z,21.89
2017-08-08T08:26:13.152Z,22.04
2017-08-08T08:27:13.182Z,22.25
2017-08-08T08:28:13.138Z,22.39
2017-08-08T08:29:13.121Z,22.50
2017-08-08T08:30:13.158Z,22.52
2017-08-08T08:31:13.219Z,22.63
2017-08-08T08:32:13.126Z,22.77
2017-08-08T08:33:13.142Z,22.64
2017-08-08T08:34:13.123Z,22.68
2017-08-08T08:35:13.121Z,22.64
2017-08-08T08:36:13.128Z,22.76
2017-08-08T08:37:13.127Z,22.77
2017-08-08T08:38:13.150Z,22.87
2017-08-08T08:39:13.150Z,22.97
2017-08-08T08:40:13.121Z,22.87
2017-08-08T08:41:13.120Z,22.90
2017-08-08T08:42:13.115Z,22.79
2017-08-08T08:43:13.183Z,22.87
2017-08-08T08:44:13.185Z,22.86
2017-08-08T08:45:13.149Z,22.86
2017-08-08T08:46:13.124Z,22.82
2017-08-08T08:47:13.122Z,22.91
2017-08-08T08:48:13.150Z,22.86
2017-08-08T08:49:13.158Z,22.93
2017-08-08T08:50:13.107Z,22.97
2017-08-08T08:51:13.111Z,23.01
2017-08-08T08:52:13.151Z,23.05
2017-08-08T08:53:13.140Z,22.94
2017-08-08T08:54:13.129Z,23.01
2017-08-08T08:55:13.131Z,23.15
2017-08-08T08:56:13.156Z,23.30
2017-08-08T08:57:13.165Z,23.38
2017-08-08T08:58:13.114Z,23.31
2017-08-08T08:59:13.160Z,23.56
2017-08-08T09:00:13.143Z,23.61
2017-08-08T09:01:13.178Z,23.75
2017-08-08T09:02:13.165Z,23.86
2017-08-08T09:03:13.144Z,23.65
2017-08-08T09:04:13.174Z,23.56
2017-08-08T09:05:13.174Z,23.72
2017-08-08T09:06:13.231Z,23.67
2017-08-08T09:07:13.202Z,23.82
2017-08-08T09:08:13.198Z,23.74
2017-08-08T09:09:13.196Z,23.69
2017-08-08T09:10:13.138Z,23.78
2017-08-08T09:11:13.174Z,23.75
2017-08-08T09:12:13.149Z,23.67
2017-08-08T09:13:13.148Z,23.74
2017-08-08T09:14:13.097Z,23.82
2017-08-08T09:15:13.162Z,23.87
2017-08-08T09:16:13.139Z,23.97
2017-08-08T09:17:13.120Z,23.97
2017-08-08T09:18:13.117Z,24.08
2017-08-08T09:19:13.146Z,24.02
2017-08-08T09:20:13.155Z,24.09
2017-08-08T09:21:13.214Z,24.07
2017-08-08T09:22:13.207Z,24.11
2017-08-08T09:23:13.190Z,24.00
2017-08-08T09:24:13.218Z,23.94
2017-08-08T09:25:13.222Z,24.05
2017-08-08T09:26:13.181Z,24.19
2017-08-08T09:27:13.182Z,24.25
2017-08-08T09:28:13.229Z,24.38
2017-08-08T09:29:13.208Z,24.33
2017-08-08T09:30:13.153Z,24.14
2017-08-08T09:31:13.160Z,24.07
2017-08-08T09:32:13.224Z,24.16
2017-08-08T09:33:13.230Z,24.23
2017-08-08T09:34:13.247Z,24.30
2017-08-08T09:35:13.190Z,24.48
2017-08-08T09:36:13.163Z,24.59
2017-08-08T09:37:13.292Z,24.54
2017-08-08T09:38:13.181Z,24.38
2017-08-08T09:39:13.156Z,24.16
2017-08-08T09:40:13.153Z,24.19
2017-08-08T09:41:13.213Z,24.26
2017-08-08T09:42:13.221Z,24.34
2017-08-08T09:43:13.221Z,24.38
2017-08-08T09:44:13.221Z,24.44
2017-08-08T09:45:13.220Z,24.66
2017-08-08T09:46:13.197Z,24.82
2017-08-08T09:47:13.156Z,25.02
2017-08-08T09:48:13.156Z,25.01
2017-08-08T09:49:13.188Z,25.15
2017-08-08T09:50:13.196Z,25.38
2017-08-08T09:51:13.206Z,25.57
2017-08-08T09:52:13.173Z,25.75
2017-08-08T09:53:13.194Z,25.71
2017-08-08T09:54:13.208Z,25.82
2017-08-08T09:55:13.177Z,25.77
2017-08-08T09:56:13.208Z,25.63
2017-08-08T09:57:13.229Z,25.45
2017-08-08T09:58:13.197Z,25.33
2017-08-08T09:59:13.263Z,25.23
2017-08-08T10:00:13.263Z,25.23
2017-08-08T10:01:13.174Z,25.17
2017-08-08T10:02:13.176Z,25.45
2017-08-08T10:03:13.202Z,25.38
2017-08-08T10:04:13.270Z,25.40
2017-08-08T10:05:13.217Z,25.23
2017-08-08T10:06:13.181Z,25.05
2017-08-08T10:07:13.196Z,24.77
2017-08-08T10:08:13.240Z,24.89
2017-08-08T10:09:13.183Z,24.81
2017-08-08T10:10:13.188Z,24.94
2017-08-08T10:11:13.186Z,25.01
2017-08-08T10:12:13.271Z,25.05
2017-08-08T10:13:13.222Z,25.11
2017-08-08T10:14:13.242Z,25.33
2017-08-08T10:15:13.242Z,25.60
2017-08-08T10:16:13.243Z,25.64
2017-08-08T10:17:13.244Z,25.73
2017-08-08T10:18:13.205Z,25.70
2017-08-08T10:19:13.277Z,25.51
2017-08-08T10:20:13.215Z,25.60
2017-08-08T10:21:13.211Z,25.67
2017-08-08T10:22:13.225Z,25.77
2017-08-08T10:23:13.243Z,25.84
2017-08-08T10:24:13.193Z,26.07
2017-08-08T10:25:13.224Z,26.06
2017-08-08T10:26:13.213Z,26.07
2017-08-08T10:27:13.260Z,26.15
2017-08-08T10:28:13.193Z,26.34
2017-08-08T10:29:13.216Z,26.37
2017-08-08T10:30:13.172Z,26.47
2017-08-08T10:31:13.181Z,26.32
2017-08-08T10:32:13.128Z,26.38
2017-08-08T10:33:13.173Z,26.59
2017-08-08T10:34:13.190Z,26.84
2017-08-08T10:35:13.184Z,27.03
2017-08-08T10:36:13.210Z,27.26
2017-08-08T10:37:13.207Z,27.25
2017-08-08T10:38:13.195Z,27.21
2017-08-08T10:39:13.170Z,27.00
2017-08-08T10:40:13.204Z,26.77
2017-08-08T10:41:13.200Z,26.81
2017-08-08T10:42:13.225Z,26.77
2017-08-08T10:43:13.254Z,26.70
2017-08-08T10:44:13.201Z,26.43
2017-08-08T10:45:13.230Z,26.38
2017-08-08T10:46:13.291Z,26.04
2017-08-08T10:47:13.255Z,26.11
2017-08-08T10:48:13.270Z,26.34
2017-08-08T10:49:13.259Z,26.33
2017-08-08T10:50:13.266Z,26.32
2017-08-08T10:51:13.232Z,26.26
2017-08-08T10:52:13.259Z,26.11
2017-08-08T10:53:13.228Z,26.10
2017-08-08T10:54:13.212Z,26.24
2017-08-08T10:55:13.299Z,26.19
2017-08-08T10:56:13.239Z,26.29
2017-08-08T10:57:13.298Z,26.24
2017-08-08T10:58:13.242Z,26.32
2017-08-08T10:59:13.246Z,26.37
2017-08-08T11:00:13.207Z,26.04
2017-08-08T11:01:13.261Z,25.86
2017-08-08T11:02:13.239Z,25.70
2017-08-08T11:03:13.281Z,25.68
2017-08-08T11:04:13.248Z,25.66
2017-08-08T11:05:13.248Z,25.57
2017-08-08T11:06:13.220Z,25.51
2017-08-08T11:07:13.214Z,25.26
2017-08-08T11:08:13.246Z,25.12
2017-08-08T11:09:13.255Z,25.04
2017-08-08T11:10:13.267Z,24.89
2017-08-08T11:11:13.231Z,24.90
2017-08-08T11:12:13.270Z,24.86
2017-08-08T11:13:13.208Z,24.77
2017-08-08T11:14:13.269Z,24.66
2017-08-08T11:15:13.215Z,24.67
2017-08-08T11:16:13.245Z,24.57
2017-08-08T11:17:13.269Z,24.61
2017-08-08T11:18:13.276Z,24.57
2017-08-08T11:19:13.238Z,24.49
2017-08-08T11:20:13.238Z,24.53
2017-08-08T11:21:13.212Z,24.47
2017-08-08T11:22:13.211Z,24.44
2017-08-08T11:23:13.277Z,24.41
2017-08-08T11:24:13.276Z,24.41
2017-08-08T11:25:13.204Z,24.38
2017-08-08T11:26:13.212Z,24.47
2017-08-08T11:27:13.247Z,24.51
2017-08-08T11:28:13.221Z,24.47
2017-08-08T11:29:13.276Z,24.47
2017-08-08T11:30:13.245Z,24.51
2017-08-08T11:31:13.245Z,24.49
2017-08-08T11:32:13.246Z,24.57
2017-08-08T11:33:13.251Z,24.59
2017-08-08T11:34:13.257Z,24.70
2017-08-08T11:35:13.231Z,24.75
2017-08-08T11:36:13.195Z,24.86
2017-08-08T11:37:13.198Z,24.95
2017-08-08T11:38:13.233Z,25.01
2017-08-08T11:39:13.247Z,25.00
2017-08-08T11:40:13.264Z,25.00
2017-08-08T11:41:13.294Z,25.02
2017-08-08T11:42:13.302Z,25.06
2017-08-08T11:43:13.321Z,24.97
2017-08-08T11:44:13.316Z,25.05
2017-08-08T11:45:13.300Z,25.06
2017-08-08T11:46:13.327Z,25.06
2017-08-08T11:47:13.235Z,25.02
2017-08-08T11:48:13.240Z,25.01
2017-08-08T11:49:13.261Z,25.04
2017-08-08T11:50:13.237Z,25.09
2017-08-08T11:51:13.331Z,25.11
2017-08-08T11:52:13.241Z,25.20
2017-08-08T11:53:13.235Z,25.17
2017-08-08T11:54:13.326Z,25.16
2017-08-08T11:55:13.335Z,25.23
2017-08-08T11:56:13.242Z,25.17
2017-08-08T11:57:13.276Z,25.09
2017-08-08T11:58:13.307Z,24.98
2017-08-08T11:59:13.319Z,24.95
2017-08-08T12:00:13.241Z,25.01
2017-08-08T12:01:13.247Z,25.04
2017-08-08T12:02:13.321Z,25.09
2017-08-08T12:03:13.332Z,25.20
2017-08-08T12:04:13.304Z,25.33
2017-08-08T12:05:13.306Z,25.44
2017-08-08T12:06:13.251Z,25.48
2017-08-08T12:07:13.345Z,25.59
2017-08-08T12:08:13.247Z,25.52
2017-08-08T12:09:13.282Z,25.40
2017-08-08T12:10:13.271Z,25.29
2017-08-08T12:11:13.269Z,25.26
2017-08-08T12:12:13.245Z,25.24
2017-08-08T12:13:13.270Z,25.17
2017-08-08T12:14:13.301Z,25.17
2017-08-08T12:15:13.240Z,25.16
2017-08-08T12:16:13.249Z,25.08
2017-08-08T12:17:13.249Z,24.91
2017-08-08T12:18:13.302Z,24.93
2017-08-08T12:19:13.274Z,24.95
2017-08-08T12:20:13.309Z,24.91
2017-08-08T12:21:13.267Z,24.85
2017-08-08T12:22:13.252Z,24.89
2017-08-08T12:23:13.281Z,24.83
2017-08-08T12:24:13.255Z,24.70
2017-08-08T12:25:13.254Z,24.57
2017-08-08T12:26:13.237Z,24.38
2017-08-08T12:27:13.281Z,24.26
2017-08-08T12:28:13.288Z,24.20
2017-08-08T12:29:13.280Z,24.25
2017-08-08T12:30:13.256Z,24.20
2017-08-08T12:31:13.279Z,24.19
2017-08-08T12:32:13.280Z,24.05
2017-08-08T12:33:13.231Z,24.02
2017-08-08T12:34:13.285Z,24.02
2017-08-08T12:35:13.271Z,24.04
2017-08-08T12:36:13.261Z,23.94
2017-08-08T12:37:13.284Z,23.90
2017-08-08T12:38:13.271Z,23.89
2017-08-08T12:39:13.286Z,23.86
2017-08-08T12:40:13.236Z,23.83
2017-08-08T12:41:13.326Z,23.80
2017-08-08T12:42:13.345Z,23.78
2017-08-08T12:43:13.257Z,23.80
2017-08-08T12:44:13.294Z,23.78
2017-08-08T12:45:13.337Z,23.76
2017-08-08T12:46:13.264Z,23.68
2017-08-08T12:47:13.264Z,23.64
2017-08-08T12:48:13.322Z,23.65
2017-08-08T12:49:13.326Z,23.65
2017-08-08T12:50:13.293Z,23.57
2017-08-08T12:51:13.276Z,23.56
2017-08-08T12:52:13.332Z,23.57
2017-08-08T12:53:13.296Z,23.56